Bronson, Florida
Current Conditions -  °F | °C
As of 10:53 AM on Monday 24 Nov 2014 (Local Time) from KGNV Reporting Station
Overcast Overcast  
Wind Chill: 80°   Ceiling: 1900
Heat Index: 84°   Visibility: 10mi
Dew Point: 71°   Wind: 12mph
Humidity: 74%   Direction: 210°SSW
Pressure: 29.96"   Gusts: 21mph
Location:  29.45°N, 82.64°W
Report Text: KGNV 241553Z 21010G18KT 10SM BKN019 BKN025 OVC039 27/22 A2996 RMK AO2 SLP141 T02670217
Loading
Personal Weather Stations






























Interactive Weather Map New forecast layout! Learn more

10-Day Weather Forecast

Advertisements
Track Severe Weather on mobile